sensor_id;sensor_type;location;lat;lon;timestamp;pressure;altitude;pressure_sealevel;temperature;humidity
47430;BME280;33181;49.246;7.372;2023-06-22T00:00:58;98901.09;;;21.81;100.00
47430;BME280;33181;49.246;7.372;2023-06-22T00:03:25;98842.59;;;21.71;100.00
47430;BME280;33181;49.246;7.372;2023-06-22T00:05:52;98853.66;;;21.68;100.00
47430;BME280;33181;49.246;7.372;2023-06-22T00:08:19;98868.63;;;21.62;100.00
47430;BME280;33181;49.246;7.372;2023-06-22T00:10:46;98888.59;;;21.60;100.00
47430;BME280;33181;49.246;7.372;2023-06-22T00:13:13;98910.91;;;21.73;100.00
47430;BME280;33181;49.246;7.372;2023-06-22T00:15:40;98927.22;;;21.79;100.00
47430;BME280;33181;49.246;7.372;2023-06-22T00:18:08;98937.66;;;21.73;100.00
47430;BME280;33181;49.246;7.372;2023-06-22T00:20:34;98937.91;;;21.79;100.00
47430;BME280;33181;49.246;7.372;2023-06-22T00:23:04;98933.19;;;21.81;100.00
47430;BME280;33181;49.246;7.372;2023-06-22T00:25:38;98935.16;;;21.93;100.00
47430;BME280;33181;49.246;7.372;2023-06-22T00:28:09;98932.78;;;22.05;100.00
47430;BME280;33181;49.246;7.372;2023-06-22T00:30:35;98935.84;;;22.24;100.00
47430;BME280;33181;49.246;7.372;2023-06-22T00:33:01;98924.41;;;22.36;100.00
47430;BME280;33181;49.246;7.372;2023-06-22T00:35:28;98916.38;;;22.36;100.00
47430;BME280;33181;49.246;7.372;2023-06-22T00:37:59;98914.88;;;22.27;100.00
47430;BME280;33181;49.246;7.372;2023-06-22T00:40:32;98903.75;;;22.24;100.00
47430;BME280;33181;49.246;7.372;2023-06-22T00:42:59;98892.22;;;22.23;100.00
47430;BME280;33181;49.246;7.372;2023-06-22T00:45:25;98883.28;;;22.16;100.00
47430;BME280;33181;49.246;7.372;2023-06-22T00:47:54;98881.09;;;21.98;100.00
47430;BME280;33181;49.246;7.372;2023-06-22T00:50:23;98867.66;;;21.91;100.00
47430;BME280;33181;49.246;7.372;2023-06-22T00:52:57;98861.84;;;21.88;100.00
47430;BME280;33181;49.246;7.372;2023-06-22T00:55:25;98845.81;;;21.88;100.00
47430;BME280;33181;49.246;7.372;2023-06-22T00:57:54;98833.41;;;21.80;100.00
47430;BME280;33181;49.246;7.372;2023-06-22T01:00:24;98820.88;;;21.81;100.00
47430;BME280;33181;49.246;7.372;2023-06-22T01:02:54;98831.47;;;21.67;100.00
47430;BME280;33181;49.246;7.372;2023-06-22T01:05:21;98830.16;;;21.57;100.00
47430;BME280;33181;49.246;7.372;2023-06-22T01:13:07;98813.91;;;21.58;100.00
47430;BME280;33181;49.246;7.372;2023-06-22T01:16:16;98811.28;;;21.43;100.00
47430;BME280;33181;49.246;7.372;2023-06-22T01:18:45;98817.09;;;21.25;100.00
47430;BME280;33181;49.246;7.372;2023-06-22T01:21:16;98827.38;;;21.28;100.00
47430;BME280;33181;49.246;7.372;2023-06-22T01:24:22;98825.47;;;21.22;100.00
47430;BME280;33181;49.246;7.372;2023-06-22T01:29:43;98828.75;;;21.24;100.00
47430;BME280;33181;49.246;7.372;2023-06-22T01:32:10;98823.63;;;21.23;100.00
47430;BME280;33181;49.246;7.372;2023-06-22T01:34:38;98822.59;;;21.24;100.00
47430;BME280;33181;49.246;7.372;2023-06-22T01:37:06;98824.19;;;21.18;100.00
47430;BME280;33181;49.246;7.372;2023-06-22T01:39:33;98820.31;;;21.21;100.00
47430;BME280;33181;49.246;7.372;2023-06-22T01:41:59;98823.13;;;21.13;100.00
47430;BME280;33181;49.246;7.372;2023-06-22T01:44:26;98820.44;;;21.13;100.00
47430;BME280;33181;49.246;7.372;2023-06-22T01:46:52;98823.63;;;21.23;100.00
47430;BME280;33181;49.246;7.372;2023-06-22T01:49:19;98824.34;;;21.32;100.00
47430;BME280;33181;49.246;7.372;2023-06-22T01:51:45;98824.72;;;21.28;100.00
47430;BME280;33181;49.246;7.372;2023-06-22T01:54:11;98819.09;;;21.23;100.00
47430;BME280;33181;49.246;7.372;2023-06-22T01:56:37;98829.78;;;21.23;100.00
47430;BME280;33181;49.246;7.372;2023-06-22T01:59:11;98825.28;;;21.24;100.00
47430;BME280;33181;49.246;7.372;2023-06-22T02:01:47;98831.31;;;21.33;100.00
47430;BME280;33181;49.246;7.372;2023-06-22T02:04:27;98820.94;;;21.38;100.00
47430;BME280;33181;49.246;7.372;2023-06-22T02:06:58;98820.94;;;21.38;100.00
47430;BME280;33181;49.246;7.372;2023-06-22T02:09:28;98813.53;;;21.40;100.00
47430;BME280;33181;49.246;7.372;2023-06-22T02:11:56;98805.38;;;21.48;100.00
47430;BME280;33181;49.246;7.372;2023-06-22T02:14:23;98801.75;;;21.56;100.00
47430;BME280;33181;49.246;7.372;2023-06-22T02:16:51;98804.03;;;21.59;100.00
47430;BME280;33181;49.246;7.372;2023-06-22T02:19:23;98790.22;;;21.55;99.98
47430;BME280;33181;49.246;7.372;2023-06-22T02:21:50;98800.53;;;21.58;99.88
47430;BME280;33181;49.246;7.372;2023-06-22T02:24:16;98800.97;;;21.62;99.97
47430;BME280;33181;49.246;7.372;2023-06-22T02:26:43;98791.09;;;21.62;99.13
47430;BME280;33181;49.246;7.372;2023-06-22T02:29:11;98792.38;;;21.66;99.28
47430;BME280;33181;49.246;7.372;2023-06-22T02:31:37;98779.41;;;21.63;98.00
47430;BME280;33181;49.246;7.372;2023-06-22T02:34:02;98780.63;;;21.39;98.20
47430;BME280;33181;49.246;7.372;2023-06-22T02:36:28;98779.03;;;21.23;99.84
47430;BME280;33181;49.246;7.372;2023-06-22T02:38:56;98765.16;;;21.13;100.00
47430;BME280;33181;49.246;7.372;2023-06-22T02:41:24;98768.28;;;21.17;100.00
47430;BME280;33181;49.246;7.372;2023-06-22T02:43:50;98765.88;;;21.00;100.00
47430;BME280;33181;49.246;7.372;2023-06-22T02:46:16;98758.34;;;20.89;100.00
47430;BME280;33181;49.246;7.372;2023-06-22T02:48:42;98762.81;;;20.82;100.00
47430;BME280;33181;49.246;7.372;2023-06-22T02:51:08;98765.88;;;20.64;100.00
47430;BME280;33181;49.246;7.372;2023-06-22T02:53:34;98759.44;;;20.58;100.00
47430;BME280;33181;49.246;7.372;2023-06-22T02:56:02;98757.56;;;20.52;100.00
47430;BME280;33181;49.246;7.372;2023-06-22T02:58:32;98747.41;;;20.48;100.00
47430;BME280;33181;49.246;7.372;2023-06-22T03:01:06;98751.09;;;20.47;100.00
47430;BME280;33181;49.246;7.372;2023-06-22T03:03:32;98761.38;;;20.50;100.00
47430;BME280;33181;49.246;7.372;2023-06-22T03:05:58;98758.44;;;20.59;100.00
47430;BME280;33181;49.246;7.372;2023-06-22T03:08:26;98764.03;;;20.65;100.00
47430;BME280;33181;49.246;7.372;2023-06-22T03:10:52;98760.63;;;20.71;100.00
47430;BME280;33181;49.246;7.372;2023-06-22T03:13:18;98762.47;;;20.70;100.00
47430;BME280;33181;49.246;7.372;2023-06-22T03:15:44;98763.81;;;20.81;100.00
47430;BME280;33181;49.246;7.372;2023-06-22T03:18:11;98759.78;;;20.70;100.00
47430;BME280;33181;49.246;7.372;2023-06-22T03:20:37;98757.88;;;20.64;100.00
47430;BME280;33181;49.246;7.372;2023-06-22T03:23:04;98754.31;;;20.57;100.00
47430;BME280;33181;49.246;7.372;2023-06-22T03:25:30;98750.88;;;20.48;100.00
47430;BME280;33181;49.246;7.372;2023-06-22T03:27:56;98750.44;;;20.45;100.00
47430;BME280;33181;49.246;7.372;2023-06-22T03:30:22;98745.09;;;20.45;100.00
47430;BME280;33181;49.246;7.372;2023-06-22T03:32:48;98755.78;;;20.45;100.00
47430;BME280;33181;49.246;7.372;2023-06-22T03:35:14;98750.88;;;20.48;100.00
47430;BME280;33181;49.246;7.372;2023-06-22T03:37:40;98754.19;;;20.50;100.00
47430;BME280;33181;49.246;7.372;2023-06-22T03:40:06;98749.88;;;20.49;100.00
47430;BME280;33181;49.246;7.372;2023-06-22T03:42:34;98746.94;;;20.44;100.00
47430;BME280;33181;49.246;7.372;2023-06-22T03:45:02;98747.13;;;20.43;100.00
47430;BME280;33181;49.246;7.372;2023-06-22T03:47:29;98752.28;;;20.44;100.00
47430;BME280;33181;49.246;7.372;2023-06-22T03:49:55;98752.44;;;20.43;100.00
47430;BME280;33181;49.246;7.372;2023-06-22T03:52:22;98746.50;;;20.41;100.00
47430;BME280;33181;49.246;7.372;2023-06-22T03:54:48;98743.09;;;20.32;100.00
47430;BME280;33181;49.246;7.372;2023-06-22T03:57:14;98743.66;;;20.27;100.00
47430;BME280;33181;49.246;7.372;2023-06-22T03:59:40;98743.03;;;20.25;100.00
47430;BME280;33181;49.246;7.372;2023-06-22T04:02:05;98740.53;;;20.24;100.00
47430;BME280;33181;49.246;7.372;2023-06-22T04:04:31;98744.88;;;20.25;100.00
47430;BME280;33181;49.246;7.372;2023-06-22T04:06:59;98741.00;;;20.27;100.00
47430;BME280;33181;49.246;7.372;2023-06-22T04:09:25;98749.66;;;20.14;100.00
47430;BME280;33181;49.246;7.372;2023-06-22T04:11:51;98745.16;;;20.15;100.00
47430;BME280;33181;49.246;7.372;2023-06-22T04:14:17;98746.63;;;20.18;100.00
47430;BME280;33181;49.246;7.372;2023-06-22T04:16:43;98745.97;;;20.16;100.00
47430;BME280;33181;49.246;7.372;2023-06-22T04:19:08;98755.09;;;20.21;100.00
47430;BME280;33181;49.246;7.372;2023-06-22T04:21:39;98746.59;;;20.32;100.00
47430;BME280;33181;49.246;7.372;2023-06-22T04:24:06;98739.38;;;20.63;100.00
47430;BME280;33181;49.246;7.372;2023-06-22T04:26:32;98731.66;;;20.89;100.00
47430;BME280;33181;49.246;7.372;2023-06-22T04:29:04;98728.22;;;21.17;98.28
47430;BME280;33181;49.246;7.372;2023-06-22T04:31:32;98720.69;;;21.27;95.92
47430;BME280;33181;49.246;7.372;2023-06-22T04:34:06;98722.41;;;21.35;95.33
47430;BME280;33181;49.246;7.372;2023-06-22T04:36:38;98719.88;;;21.26;95.33
47430;BME280;33181;49.246;7.372;2023-06-22T04:39:14;98711.16;;;21.39;95.42
47430;BME280;33181;49.246;7.372;2023-06-22T04:41:40;98717.41;;;21.53;93.24
47430;BME280;33181;49.246;7.372;2023-06-22T04:44:17;98720.38;;;21.37;94.42
47430;BME280;33181;49.246;7.372;2023-06-22T04:46:51;98709.69;;;21.37;94.71
47430;BME280;33181;49.246;7.372;2023-06-22T04:49:27;98714.78;;;21.32;95.09
47430;BME280;33181;49.246;7.372;2023-06-22T04:52:04;98714.81;;;21.60;94.60
47430;BME280;33181;49.246;7.372;2023-06-22T04:54:31;98710.34;;;21.73;92.65
47430;BME280;33181;49.246;7.372;2023-06-22T04:57:05;98717.13;;;21.69;92.61
47430;BME280;33181;49.246;7.372;2023-06-22T04:59:37;98713.19;;;21.65;93.12
47430;BME280;33181;49.246;7.372;2023-06-22T05:02:07;98701.31;;;21.74;93.25
47430;BME280;33181;49.246;7.372;2023-06-22T05:04:34;98705.88;;;21.81;93.01
47430;BME280;33181;49.246;7.372;2023-06-22T05:07:02;98705.69;;;21.82;92.57
47430;BME280;33181;49.246;7.372;2023-06-22T05:09:29;98714.53;;;21.83;92.38
47430;BME280;33181;49.246;7.372;2023-06-22T05:11:56;98711.16;;;22.09;91.91
47430;BME280;33181;49.246;7.372;2023-06-22T05:14:23;98708.78;;;22.20;90.03
47430;BME280;33181;49.246;7.372;2023-06-22T05:16:49;98710.81;;;22.18;89.84
47430;BME280;33181;49.246;7.372;2023-06-22T05:19:17;98700.56;;;22.29;89.56
47430;BME280;33181;49.246;7.372;2023-06-22T05:21:43;98704.25;;;22.21;90.20
47430;BME280;33181;49.246;7.372;2023-06-22T05:24:10;98704.94;;;22.36;90.12
47430;BME280;33181;49.246;7.372;2023-06-22T05:26:35;98700.78;;;22.27;90.10
47430;BME280;33181;49.246;7.372;2023-06-22T05:29:03;98690.47;;;22.24;89.67
47430;BME280;33181;49.246;7.372;2023-06-22T05:31:29;98699.75;;;22.35;89.60
47430;BME280;33181;49.246;7.372;2023-06-22T05:34:00;98701.44;;;22.36;89.31
47430;BME280;33181;49.246;7.372;2023-06-22T05:36:27;98700.56;;;22.29;89.84
47430;BME280;33181;49.246;7.372;2023-06-22T05:38:53;98703.88;;;22.31;90.28
47430;BME280;33181;49.246;7.372;2023-06-22T05:41:19;98693.16;;;22.31;90.02
47430;BME280;33181;49.246;7.372;2023-06-22T05:43:47;98697.56;;;22.45;90.08
47430;BME280;33181;49.246;7.372;2023-06-22T05:46:13;98700.63;;;22.42;89.77
47430;BME280;33181;49.246;7.372;2023-06-22T05:48:39;98696.28;;;22.48;90.00
47430;BME280;33181;49.246;7.372;2023-06-22T05:51:05;98700.44;;;22.57;90.14
47430;BME280;33181;49.246;7.372;2023-06-22T05:53:31;98703.34;;;22.62;90.00
47430;BME280;33181;49.246;7.372;2023-06-22T05:55:57;98702.16;;;22.78;89.42
47430;BME280;33181;49.246;7.372;2023-06-22T05:58:23;98701.34;;;22.84;88.19
47430;BME280;33181;49.246;7.372;2023-06-22T06:00:49;98691.84;;;22.75;88.68
47430;BME280;33181;49.246;7.372;2023-06-22T06:03:16;98693.53;;;22.89;88.73
47430;BME280;33181;49.246;7.372;2023-06-22T06:05:44;98697.84;;;22.77;88.75
47430;BME280;33181;49.246;7.372;2023-06-22T06:08:11;98702.56;;;22.88;88.09
47430;BME280;33181;49.246;7.372;2023-06-22T06:10:38;98694.94;;;22.91;87.95
47430;BME280;33181;49.246;7.372;2023-06-22T06:13:08;98688.16;;;22.89;87.95
47430;BME280;33181;49.246;7.372;2023-06-22T06:15:35;98690.25;;;23.13;87.84
47430;BME280;33181;49.246;7.372;2023-06-22T06:18:02;98685.50;;;23.35;85.87
47430;BME280;33181;49.246;7.372;2023-06-22T06:20:30;98687.16;;;23.03;86.64
47430;BME280;33181;49.246;7.372;2023-06-22T06:22:57;98686.97;;;23.11;86.89
47430;BME280;33181;49.246;7.372;2023-06-22T06:25:23;98684.28;;;23.11;87.18
47430;BME280;33181;49.246;7.372;2023-06-22T06:27:52;98687.16;;;23.03;88.07
47430;BME280;33181;49.246;7.372;2023-06-22T06:30:21;98691.28;;;23.12;86.43
47430;BME280;33181;49.246;7.372;2023-06-22T06:32:48;98683.22;;;23.32;85.97
47430;BME280;33181;49.246;7.372;2023-06-22T06:35:19;98669.22;;;23.30;85.74
47430;BME280;33181;49.246;7.372;2023-06-22T06:37:48;98665.88;;;23.48;85.91
47430;BME280;33181;49.246;7.372;2023-06-22T06:40:17;98657.41;;;23.58;85.29
47430;BME280;33181;49.246;7.372;2023-06-22T06:42:46;98677.63;;;23.80;84.03
47430;BME280;33181;49.246;7.372;2023-06-22T06:45:20;98681.72;;;23.83;82.04
47430;BME280;33181;49.246;7.372;2023-06-22T06:47:49;98679.63;;;23.92;82.51
47430;BME280;33181;49.246;7.372;2023-06-22T06:50:15;98676.44;;;24.21;82.43
47430;BME280;33181;49.246;7.372;2023-06-22T06:52:44;98679.06;;;24.41;79.57
47430;BME280;33181;49.246;7.372;2023-06-22T06:55:10;98680.88;;;24.41;79.95
47430;BME280;33181;49.246;7.372;2023-06-22T06:57:42;98675.75;;;24.71;78.71
47430;BME280;33181;49.246;7.372;2023-06-22T07:00:11;98689.94;;;24.85;78.58
47430;BME280;33181;49.246;7.372;2023-06-22T07:02:43;98680.75;;;24.67;77.71
47430;BME280;33181;49.246;7.372;2023-06-22T07:05:11;98681.13;;;25.03;77.91
47430;BME280;33181;49.246;7.372;2023-06-22T07:11:00;98677.97;;;25.12;76.47
47430;BME280;33181;49.246;7.372;2023-06-22T07:13:26;98679.94;;;25.24;75.43
47430;BME280;33181;49.246;7.372;2023-06-22T07:15:52;98664.44;;;25.26;76.56
47430;BME280;33181;49.246;7.372;2023-06-22T07:18:18;98666.75;;;25.22;76.84
47430;BME280;33181;49.246;7.372;2023-06-22T07:20:45;98662.19;;;25.23;75.78
47430;BME280;33181;49.246;7.372;2023-06-22T07:23:10;98664.06;;;25.22;77.30
47430;BME280;33181;49.246;7.372;2023-06-22T07:25:38;98662.44;;;25.39;75.40
47430;BME280;33181;49.246;7.372;2023-06-22T07:28:11;98656.38;;;25.26;75.01
47430;BME280;33181;49.246;7.372;2023-06-22T07:30:37;98655.34;;;25.45;77.07
47430;BME280;33181;49.246;7.372;2023-06-22T07:33:03;98649.63;;;25.60;75.27
47430;BME280;33181;49.246;7.372;2023-06-22T07:35:30;98653.59;;;25.32;74.77
47430;BME280;33181;49.246;7.372;2023-06-22T07:37:56;98644.28;;;25.10;75.15
47430;BME280;33181;49.246;7.372;2023-06-22T07:40:22;98640.28;;;24.94;76.73
47430;BME280;33181;49.246;7.372;2023-06-22T07:42:47;98625.03;;;25.13;77.48
47430;BME280;33181;49.246;7.372;2023-06-22T07:45:14;98624.31;;;25.42;75.28
47430;BME280;33181;49.246;7.372;2023-06-22T07:47:40;98638.53;;;25.50;74.37
47430;BME280;33181;49.246;7.372;2023-06-22T07:50:06;98637.78;;;25.61;74.79
47430;BME280;33181;49.246;7.372;2023-06-22T07:52:32;98639.81;;;25.65;74.46
47430;BME280;33181;49.246;7.372;2023-06-22T07:54:58;98634.00;;;25.87;73.10
47430;BME280;33181;49.246;7.372;2023-06-22T07:57:24;98645.13;;;25.91;72.69
47430;BME280;33181;49.246;7.372;2023-06-22T07:59:58;98651.09;;;26.11;72.98
47430;BME280;33181;49.246;7.372;2023-06-22T08:02:24;98626.63;;;26.12;71.46
47430;BME280;33181;49.246;7.372;2023-06-22T08:04:50;98630.75;;;26.15;72.89
47430;BME280;33181;49.246;7.372;2023-06-22T08:07:16;98644.81;;;26.17;71.99
47430;BME280;33181;49.246;7.372;2023-06-22T08:09:47;98632.59;;;26.33;72.51
47430;BME280;33181;49.246;7.372;2023-06-22T08:12:14;98626.53;;;26.19;70.31
47430;BME280;33181;49.246;7.372;2023-06-22T08:14:42;98625.47;;;26.08;71.66
47430;BME280;33181;49.246;7.372;2023-06-22T08:17:09;98617.28;;;26.15;72.33
47430;BME280;33181;49.246;7.372;2023-06-22T08:19:34;98625.22;;;26.10;72.14
47430;BME280;33181;49.246;7.372;2023-06-22T08:22:00;98620.94;;;26.21;71.96
47430;BME280;33181;49.246;7.372;2023-06-22T08:24:26;98628.22;;;26.20;71.47
47430;BME280;33181;49.246;7.372;2023-06-22T08:26:56;98615.19;;;26.17;72.39
47430;BME280;33181;49.246;7.372;2023-06-22T08:29:21;98608.56;;;26.01;73.23
47430;BME280;33181;49.246;7.372;2023-06-22T08:31:47;98608.81;;;25.81;73.76
47430;BME280;33181;49.246;7.372;2023-06-22T08:34:13;98616.66;;;25.83;74.15
47430;BME280;33181;49.246;7.372;2023-06-22T08:36:39;98620.78;;;25.85;74.08
47430;BME280;33181;49.246;7.372;2023-06-22T08:39:07;98617.75;;;25.94;73.03
47430;BME280;33181;49.246;7.372;2023-06-22T08:41:33;98618.47;;;25.89;72.14
47430;BME280;33181;49.246;7.372;2023-06-22T08:43:59;98614.56;;;25.85;72.36
47430;BME280;33181;49.246;7.372;2023-06-22T08:46:25;98613.66;;;25.91;71.64
47430;BME280;33181;49.246;7.372;2023-06-22T08:48:56;98608.72;;;25.88;69.98
47430;BME280;33181;49.246;7.372;2023-06-22T08:51:26;98609.50;;;26.07;70.55
47430;BME280;33181;49.246;7.372;2023-06-22T08:53:52;98611.72;;;26.28;68.89
47430;BME280;33181;49.246;7.372;2023-06-22T08:56:18;98611.47;;;26.48;68.99
47430;BME280;33181;49.246;7.372;2023-06-22T08:58:44;98618.91;;;26.88;66.10
47430;BME280;33181;49.246;7.372;2023-06-22T09:01:10;98613.94;;;27.15;65.98
47430;BME280;33181;49.246;7.372;2023-06-22T09:03:36;98621.78;;;27.17;64.33
47430;BME280;33181;49.246;7.372;2023-06-22T09:06:03;98620.75;;;27.18;62.83
47430;BME280;33181;49.246;7.372;2023-06-22T09:08:29;98627.72;;;27.07;63.29
47430;BME280;33181;49.246;7.372;2023-06-22T09:10:55;98615.41;;;26.88;64.03
47430;BME280;33181;49.246;7.372;2023-06-22T09:13:20;98606.38;;;26.82;64.10
47430;BME280;33181;49.246;7.372;2023-06-22T09:15:47;98607.66;;;26.91;64.04
47430;BME280;33181;49.246;7.372;2023-06-22T09:18:14;98592.44;;;26.97;63.73
47430;BME280;33181;49.246;7.372;2023-06-22T09:20:40;98585.31;;;27.26;63.89
47430;BME280;33181;49.246;7.372;2023-06-22T09:23:05;98584.22;;;27.62;62.80
47430;BME280;33181;49.246;7.372;2023-06-22T09:25:31;98580.78;;;27.55;61.74
47430;BME280;33181;49.246;7.372;2023-06-22T09:27:57;98567.41;;;27.84;62.26
47430;BME280;33181;49.246;7.372;2023-06-22T09:30:22;98567.88;;;28.09;61.27
47430;BME280;33181;49.246;7.372;2023-06-22T09:32:48;98554.88;;;28.23;59.99
47430;BME280;33181;49.246;7.372;2023-06-22T09:35:14;98556.84;;;28.28;59.26
47430;BME280;33181;49.246;7.372;2023-06-22T09:37:40;98551.72;;;28.43;58.42
47430;BME280;33181;49.246;7.372;2023-06-22T09:40:08;98542.41;;;28.51;58.54
47430;BME280;33181;49.246;7.372;2023-06-22T09:42:35;98536.56;;;28.93;59.06
47430;BME280;33181;49.246;7.372;2023-06-22T09:45:01;98531.22;;;29.15;57.77
47430;BME280;33181;49.246;7.372;2023-06-22T09:47:31;98523.72;;;29.22;57.41
47430;BME280;33181;49.246;7.372;2023-06-22T09:49:57;98525.53;;;29.33;57.29
47430;BME280;33181;49.246;7.372;2023-06-22T09:52:28;98524.09;;;29.08;56.85
47430;BME280;33181;49.246;7.372;2023-06-22T09:54:54;98521.09;;;29.27;57.61
47430;BME280;33181;49.246;7.372;2023-06-22T09:57:19;98530.03;;;29.27;57.74
47430;BME280;33181;49.246;7.372;2023-06-22T09:59:55;98529.47;;;29.47;56.10
47430;BME280;33181;49.246;7.372;2023-06-22T10:02:21;98513.63;;;29.78;56.45
47430;BME280;33181;49.246;7.372;2023-06-22T10:05:06;98513.06;;;30.03;56.33
47430;BME280;33181;49.246;7.372;2023-06-22T10:07:33;98517.34;;;30.21;55.33
47430;BME280;33181;49.246;7.372;2023-06-22T10:09:59;98515.34;;;30.16;55.40
47430;BME280;33181;49.246;7.372;2023-06-22T10:12:28;98510.16;;;29.83;55.09
47430;BME280;33181;49.246;7.372;2023-06-22T10:15:02;98514.50;;;29.84;55.88
47430;BME280;33181;49.246;7.372;2023-06-22T10:17:31;98510.19;;;29.88;56.34
47430;BME280;33181;49.246;7.372;2023-06-22T10:19:57;98505.81;;;30.09;56.26
47430;BME280;33181;49.246;7.372;2023-06-22T10:22:28;98503.78;;;30.21;54.65
47430;BME280;33181;49.246;7.372;2023-06-22T10:24:57;98504.31;;;29.96;56.25
47430;BME280;33181;49.246;7.372;2023-06-22T10:27:23;98509.06;;;30.11;56.18
47430;BME280;33181;49.246;7.372;2023-06-22T10:29:49;98496.00;;;30.02;56.08
47430;BME280;33181;49.246;7.372;2023-06-22T10:32:14;98506.25;;;30.00;56.40
47430;BME280;33181;49.246;7.372;2023-06-22T10:34:46;98491.84;;;29.95;56.49
47430;BME280;33181;49.246;7.372;2023-06-22T10:37:12;98483.41;;;30.18;54.39
47430;BME280;33181;49.246;7.372;2023-06-22T10:39:38;98486.34;;;30.44;56.09
47430;BME280;33181;49.246;7.372;2023-06-22T10:42:04;98476.47;;;30.65;54.54
47430;BME280;33181;49.246;7.372;2023-06-22T10:44:36;98478.59;;;31.05;53.41
47430;BME280;33181;49.246;7.372;2023-06-22T10:47:10;98482.72;;;31.13;52.42
47430;BME280;33181;49.246;7.372;2023-06-22T10:49:41;98479.06;;;31.39;50.03
47430;BME280;33181;49.246;7.372;2023-06-22T10:52:10;98481.41;;;31.89;47.22
47430;BME280;33181;49.246;7.372;2023-06-22T10:54:37;98486.31;;;32.17;47.72
47430;BME280;33181;49.246;7.372;2023-06-22T10:57:03;98486.03;;;32.39;47.96
47430;BME280;33181;49.246;7.372;2023-06-22T10:59:31;98490.41;;;32.35;46.56
47430;BME280;33181;49.246;7.372;2023-06-22T11:01:56;98497.44;;;32.72;46.36
47430;BME280;33181;49.246;7.372;2023-06-22T11:04:24;98505.84;;;33.06;44.73
47430;BME280;33181;49.246;7.372;2023-06-22T11:06:51;98504.28;;;32.28;46.18
47430;BME280;33181;49.246;7.372;2023-06-22T11:09:17;98498.75;;;31.88;48.23
47430;BME280;33181;49.246;7.372;2023-06-22T11:11:49;98507.25;;;32.06;48.00
47430;BME280;33181;49.246;7.372;2023-06-22T11:14:16;98500.44;;;31.99;48.25
47430;BME280;33181;49.246;7.372;2023-06-22T11:16:43;98507.44;;;31.79;48.50
47430;BME280;33181;49.246;7.372;2023-06-22T11:19:09;98501.47;;;31.88;48.27
47430;BME280;33181;49.246;7.372;2023-06-22T11:21:35;98499.09;;;32.32;49.00
47430;BME280;33181;49.246;7.372;2023-06-22T11:24:01;98499.06;;;32.83;47.03
47430;BME280;33181;49.246;7.372;2023-06-22T11:26:27;98494.47;;;32.68;45.58
47430;BME280;33181;49.246;7.372;2023-06-22T11:28:53;98497.16;;;32.78;45.32
47430;BME280;33181;49.246;7.372;2023-06-22T11:31:19;98497.16;;;32.89;45.54
47430;BME280;33181;49.246;7.372;2023-06-22T11:33:46;98502.09;;;32.76;44.98
47430;BME280;33181;49.246;7.372;2023-06-22T11:36:15;98511.31;;;32.40;45.65
47430;BME280;33181;49.246;7.372;2023-06-22T11:38:44;98501.28;;;32.20;46.01
47430;BME280;33181;49.246;7.372;2023-06-22T11:41:10;98508.59;;;32.04;47.82
47430;BME280;33181;49.246;7.372;2023-06-22T11:43:36;98503.44;;;32.23;48.47
47430;BME280;33181;49.246;7.372;2023-06-22T11:46:03;98496.13;;;32.44;46.89
47430;BME280;33181;49.246;7.372;2023-06-22T11:48:30;98495.22;;;31.82;47.19
47430;BME280;33181;49.246;7.372;2023-06-22T11:50:56;98486.13;;;31.46;48.38
47430;BME280;33181;49.246;7.372;2023-06-22T11:53:25;98487.47;;;31.38;49.08
47430;BME280;33181;49.246;7.372;2023-06-22T11:55:51;98488.09;;;31.60;49.78
47430;BME280;33181;49.246;7.372;2023-06-22T11:58:20;98488.94;;;31.66;49.47
47430;BME280;33181;49.246;7.372;2023-06-22T12:00:46;98491.44;;;31.20;51.18
47430;BME280;33181;49.246;7.372;2023-06-22T12:03:12;98495.41;;;30.97;51.22
47430;BME280;33181;49.246;7.372;2023-06-22T12:05:42;98489.97;;;30.97;51.48
47430;BME280;33181;49.246;7.372;2023-06-22T12:08:08;98494.75;;;30.80;52.27
47430;BME280;33181;49.246;7.372;2023-06-22T12:10:34;98486.91;;;30.46;53.38
47430;BME280;33181;49.246;7.372;2023-06-22T12:13:21;98468.63;;;30.68;54.50
47430;BME280;33181;49.246;7.372;2023-06-22T12:15:48;98478.34;;;31.07;52.20
47430;BME280;33181;49.246;7.372;2023-06-22T12:18:15;98490.22;;;31.48;52.15
47430;BME280;33181;49.246;7.372;2023-06-22T12:20:41;98498.97;;;31.03;52.62
47430;BME280;33181;49.246;7.372;2023-06-22T12:23:07;98489.78;;;31.09;51.70
47430;BME280;33181;49.246;7.372;2023-06-22T12:25:32;98490.03;;;30.65;53.07
47430;BME280;33181;49.246;7.372;2023-06-22T12:27:58;98482.03;;;30.48;54.21
47430;BME280;33181;49.246;7.372;2023-06-22T12:30:24;98489.22;;;30.69;54.14
47430;BME280;33181;49.246;7.372;2023-06-22T12:32:50;98494.59;;;30.97;51.55
47430;BME280;33181;49.246;7.372;2023-06-22T12:35:16;98492.78;;;31.17;51.11
47430;BME280;33181;49.246;7.372;2023-06-22T12:37:43;98483.78;;;31.07;50.70
47430;BME280;33181;49.246;7.372;2023-06-22T12:40:10;98474.59;;;31.13;51.12
47430;BME280;33181;49.246;7.372;2023-06-22T12:42:39;98472.66;;;31.08;51.17
47430;BME280;33181;49.246;7.372;2023-06-22T12:45:06;98475.13;;;31.10;50.83
47430;BME280;33181;49.246;7.372;2023-06-22T12:47:32;98479.44;;;31.11;50.48
47430;BME280;33181;49.246;7.372;2023-06-22T12:49:57;98472.03;;;31.44;49.42
47430;BME280;33181;49.246;7.372;2023-06-22T12:52:23;98461.72;;;31.51;49.88
47430;BME280;33181;49.246;7.372;2023-06-22T12:54:49;98469.03;;;31.40;50.77
47430;BME280;33181;49.246;7.372;2023-06-22T12:57:15;98473.38;;;31.46;49.91
47430;BME280;33181;49.246;7.372;2023-06-22T12:59:41;98456.16;;;31.20;51.65
47430;BME280;33181;49.246;7.372;2023-06-22T13:02:07;98449.66;;;31.26;49.32
47430;BME280;33181;49.246;7.372;2023-06-22T13:04:32;98451.84;;;31.29;48.73
47430;BME280;33181;49.246;7.372;2023-06-22T13:07:02;98461.00;;;31.13;49.23
47430;BME280;33181;49.246;7.372;2023-06-22T13:09:28;98452.03;;;31.07;49.00
47430;BME280;33181;49.246;7.372;2023-06-22T13:11:54;98448.66;;;31.43;46.87